createdAt,value
2022-12-23T07:51:41.797Z,78.32
2022-12-23T07:54:12.377Z,71.25
2022-12-23T07:56:40.272Z,70.15
2022-12-23T07:59:07.966Z,80.22
2022-12-23T08:01:35.791Z,79.38
2022-12-23T08:04:12.266Z,78.80
2022-12-23T08:06:41.529Z,82.65
2022-12-23T08:09:10.390Z,72.45
2022-12-23T08:11:37.944Z,73.88
2022-12-23T08:14:05.460Z,79.65
2022-12-23T08:16:36.626Z,76.57
2022-12-23T08:19:09.137Z,88.20
2022-12-23T08:21:36.659Z,70.72
2022-12-23T08:24:06.057Z,73.63
2022-12-23T08:26:34.023Z,68.60
2022-12-23T08:29:01.947Z,67.15
2022-12-23T08:31:32.995Z,63.03
2022-12-23T08:34:01.745Z,65.25
2022-12-23T08:36:30.156Z,63.75
2022-12-23T08:38:58.680Z,56.85
2022-12-23T08:41:31.141Z,63.65
2022-12-23T08:43:58.929Z,63.85
2022-12-23T08:46:26.780Z,56.67
2022-12-23T08:48:54.944Z,63.50
2022-12-23T08:51:23.624Z,61.80
2022-12-23T08:53:56.272Z,60.58
2022-12-23T08:56:30.133Z,57.50
2022-12-23T08:58:58.033Z,63.78
2022-12-23T09:01:26.874Z,60.97
2022-12-23T09:04:01.202Z,58.72
2022-12-23T09:06:30.647Z,51.83
2022-12-23T09:08:58.193Z,55.92
2022-12-23T09:11:26.551Z,48.65
2022-12-23T09:13:55.461Z,60.85
2022-12-23T09:16:23.616Z,60.63
2022-12-23T09:18:51.719Z,51.40
2022-12-23T09:21:20.051Z,49.00
2022-12-23T09:23:48.908Z,46.92
2022-12-23T09:26:18.489Z,53.55
2022-12-23T09:28:46.163Z,53.03
2022-12-23T09:31:15.602Z,52.42
2022-12-23T09:33:43.439Z,59.53
2022-12-23T09:36:11.038Z,63.15
2022-12-23T09:38:38.824Z,64.35
2022-12-23T09:41:13.871Z,59.03
2022-12-23T09:43:45.667Z,53.47
2022-12-23T09:46:15.586Z,64.78
2022-12-23T09:48:50.086Z,58.13
2022-12-23T09:51:20.523Z,58.08
2022-12-23T09:53:53.689Z,58.05
2022-12-23T09:56:26.291Z,55.67
2022-12-23T09:59:02.121Z,51.88
2022-12-23T10:01:32.692Z,51.65
2022-12-23T10:04:24.483Z,48.58
2022-12-23T10:06:59.353Z,52.83
2022-12-23T10:09:31.168Z,56.83
2022-12-23T10:11:59.803Z,51.08
2022-12-23T10:14:31.344Z,48.92
2022-12-23T10:17:00.218Z,57.53
2022-12-23T10:19:29.973Z,53.78
2022-12-23T10:22:07.630Z,60.03
2022-12-23T10:24:37.768Z,63.22
2022-12-23T10:27:07.574Z,61.92
2022-12-23T10:29:35.975Z,67.68
2022-12-23T10:32:08.695Z,59.75
2022-12-23T10:34:40.830Z,70.90
2022-12-23T10:37:13.126Z,63.22
2022-12-23T10:39:45.403Z,63.03
2022-12-23T10:42:17.852Z,67.78
2022-12-23T10:44:51.960Z,61.53
2022-12-23T10:47:25.202Z,63.33
2022-12-23T10:49:57.136Z,65.93
2022-12-23T10:52:28.755Z,72.13
2022-12-23T10:54:56.404Z,69.57
2022-12-23T10:57:24.882Z,67.35
2022-12-23T10:59:52.929Z,66.85
2022-12-23T11:02:34.233Z,64.03
2022-12-23T11:05:02.652Z,63.53
2022-12-23T11:07:47.351Z,59.95
2022-12-23T11:12:45.829Z,52.67
2022-12-23T11:15:26.531Z,61.17
2022-12-23T11:18:01.735Z,54.95
2022-12-23T11:20:29.601Z,54.55
2022-12-23T11:23:02.631Z,56.72
2022-12-23T11:25:32.339Z,61.30
2022-12-23T11:28:00.947Z,61.80
2022-12-23T11:30:39.666Z,55.30
2022-12-23T11:33:07.744Z,52.58
2022-12-23T11:35:37.447Z,59.92
2022-12-23T11:38:13.797Z,67.57
2022-12-23T11:40:41.524Z,65.35
2022-12-23T11:43:14.389Z,69.03
2022-12-23T11:45:42.201Z,68.85
2022-12-23T11:48:28.124Z,65.85
2022-12-23T11:50:59.668Z,67.15
2022-12-23T11:53:29.216Z,69.47
2022-12-23T11:56:00.192Z,69.28
2022-12-23T11:58:31.829Z,88.30
2022-12-23T12:01:02.568Z,76.88
2022-12-23T12:03:35.990Z,73.75
2022-12-23T12:06:06.379Z,75.82
2022-12-23T12:08:42.258Z,77.10
2022-12-23T12:11:14.729Z,59.22
2022-12-23T13:34:27.838Z,76.85
2022-12-23T13:37:00.661Z,82.72
2022-12-23T13:39:32.590Z,89.25
2022-12-23T13:42:05.750Z,90.85
2022-12-23T13:44:34.931Z,88.05
2022-12-23T13:47:07.490Z,96.38
2022-12-23T13:49:45.866Z,85.80
2022-12-23T13:52:16.045Z,95.63
2022-12-23T13:54:49.416Z,89.47
2022-12-23T13:57:22.137Z,89.90
2022-12-23T14:00:04.636Z,86.28
2022-12-23T14:02:44.685Z,91.00
2022-12-23T14:05:33.641Z,93.97
2022-12-23T14:08:02.352Z,84.60
2022-12-23T14:10:30.414Z,98.15
2022-12-23T14:13:03.529Z,93.90
2022-12-23T14:15:55.216Z,92.40
2022-12-23T14:18:30.229Z,96.80
2022-12-23T14:21:05.870Z,90.65
2022-12-23T14:23:38.245Z,97.75
2022-12-23T14:26:15.530Z,93.43
2022-12-23T14:28:52.088Z,93.63
2022-12-23T14:31:34.480Z,88.32
2022-12-23T14:34:06.695Z,105.55
2022-12-23T14:36:35.829Z,111.13
2022-12-23T14:39:23.353Z,118.07
2022-12-23T14:41:57.565Z,114.22
2022-12-23T14:44:45.825Z,111.38
2022-12-23T14:47:40.325Z,127.90
2022-12-23T14:50:26.947Z,122.88
2022-12-23T14:53:02.533Z,123.35
2022-12-23T14:55:49.795Z,123.50
2022-12-23T14:58:53.279Z,121.32
2022-12-23T15:01:23.927Z,132.25
2022-12-23T15:04:00.786Z,126.00
2022-12-23T15:06:33.469Z,118.75
2022-12-23T15:09:03.029Z,121.80
2022-12-23T15:11:31.982Z,118.40
2022-12-23T15:14:01.767Z,121.43
2022-12-23T15:16:35.577Z,107.03
2022-12-23T15:19:07.249Z,106.95
2022-12-23T15:21:36.272Z,97.43
2022-12-23T15:24:05.800Z,111.88
2022-12-23T15:26:33.697Z,118.63
2022-12-23T15:29:03.723Z,112.65
2022-12-23T15:31:45.878Z,108.15
2022-12-23T15:34:18.770Z,109.20
2022-12-23T15:36:46.947Z,119.28
2022-12-23T15:39:21.065Z,98.53
2022-12-23T15:41:49.252Z,108.80
2022-12-23T15:44:19.666Z,105.43
2022-12-23T15:46:47.709Z,97.63
2022-12-23T15:49:15.293Z,96.10
2022-12-23T15:54:34.971Z,100.20
2022-12-23T15:57:03.876Z,92.20
2022-12-23T15:59:34.002Z,99.55
2022-12-23T16:02:32.640Z,100.43
2022-12-23T16:05:00.533Z,97.93
2022-12-23T16:07:34.565Z,96.13
2022-12-23T16:10:09.918Z,99.65
2022-12-23T16:12:39.075Z,96.50
2022-12-23T16:15:20.542Z,96.28
2022-12-23T16:17:51.971Z,94.68
2022-12-23T16:20:26.630Z,110.00
2022-12-23T16:23:02.261Z,92.72
2022-12-23T16:25:38.836Z,105.43
2022-12-23T16:28:08.257Z,101.57
2022-12-23T16:30:36.833Z,104.97
2022-12-23T16:33:06.888Z,100.65
2022-12-23T16:35:37.175Z,104.75
2022-12-23T16:38:15.841Z,116.75
2022-12-23T16:40:45.972Z,109.43
2022-12-23T16:43:13.929Z,112.32
2022-12-23T16:45:42.189Z,115.57
2022-12-23T16:48:11.876Z,108.05
2022-12-23T16:50:39.510Z,103.70
2022-12-23T16:53:07.001Z,123.57
2022-12-23T16:55:34.624Z,107.22
2022-12-23T16:58:06.143Z,112.20
2022-12-23T17:00:34.006Z,108.10
2022-12-23T17:03:03.004Z,114.55
2022-12-23T17:05:30.512Z,96.45
2022-12-23T17:08:10.369Z,104.78
2022-12-23T17:10:37.943Z,106.30
2022-12-23T17:13:06.931Z,108.93
2022-12-23T17:15:34.715Z,102.07
2022-12-23T17:18:02.248Z,112.13
2022-12-23T17:20:29.884Z,124.90
2022-12-23T17:22:59.513Z,110.28
2022-12-23T17:25:38.158Z,109.47
2022-12-23T17:28:11.237Z,102.20
2022-12-23T17:30:40.984Z,103.28
2022-12-23T17:33:15.937Z,114.97
2022-12-23T17:35:43.441Z,121.80
2022-12-23T17:38:16.305Z,119.10
2022-12-23T17:40:44.578Z,108.20
2022-12-23T17:43:14.538Z,108.90
2022-12-23T17:45:42.522Z,111.55
2022-12-23T17:48:16.310Z,109.07
2022-12-23T17:50:47.803Z,93.07
2022-12-23T17:53:17.335Z,106.05
2022-12-23T17:55:45.360Z,102.07
2022-12-23T17:58:15.377Z,97.85
2022-12-23T18:00:43.102Z,113.72
2022-12-23T18:03:39.451Z,99.80
2022-12-23T18:06:10.209Z,103.85
2022-12-23T18:08:37.808Z,107.72
2022-12-23T18:11:06.126Z,113.03
2022-12-23T18:13:35.785Z,105.45
2022-12-23T18:16:04.498Z,105.03
2022-12-23T18:18:43.764Z,104.38
2022-12-23T18:21:15.051Z,111.20
2022-12-23T18:23:43.073Z,104.97
2022-12-23T18:26:11.876Z,101.57
2022-12-23T18:28:40.910Z,105.80
2022-12-23T18:31:50.211Z,98.68
2022-12-23T18:34:27.116Z,102.30
2022-12-23T18:36:58.322Z,97.53
2022-12-23T18:39:31.511Z,104.72
2022-12-23T18:41:59.103Z,97.38
2022-12-23T18:44:35.258Z,108.20
2022-12-23T18:47:02.811Z,103.35
2022-12-23T18:49:30.368Z,114.60
2022-12-23T18:52:00.371Z,99.63
2022-12-23T18:54:28.136Z,106.45
2022-12-23T18:57:04.340Z,96.30
2022-12-23T18:59:36.216Z,88.88
2022-12-23T19:02:03.908Z,99.75
2022-12-23T19:04:33.455Z,105.25
2022-12-23T19:07:01.076Z,98.45
2022-12-23T19:09:31.084Z,97.60
2022-12-23T19:11:59.017Z,88.97
2022-12-23T19:14:26.765Z,97.60
2022-12-23T19:17:04.854Z,105.35
2022-12-23T19:19:32.555Z,91.00
2022-12-23T19:22:00.215Z,99.13
2022-12-23T19:24:27.747Z,88.43
2022-12-23T19:26:55.335Z,103.90
2022-12-23T19:29:22.867Z,91.65
2022-12-23T19:31:50.424Z,90.10
2022-12-23T19:34:20.083Z,88.32
2022-12-23T19:36:51.343Z,101.57
2022-12-23T19:39:21.882Z,92.03
2022-12-23T19:41:52.603Z,100.63
2022-12-23T19:44:20.133Z,90.65
2022-12-23T19:46:47.746Z,91.50
2022-12-23T19:49:20.102Z,96.03
2022-12-23T19:51:49.596Z,106.75
2022-12-23T19:54:17.542Z,95.63
2022-12-23T19:56:45.492Z,103.72
2022-12-23T19:59:13.143Z,104.82
2022-12-23T20:01:43.476Z,107.53
2022-12-23T20:04:13.164Z,100.40
2022-12-23T20:06:41.151Z,102.55
2022-12-23T20:09:11.198Z,97.82
2022-12-23T20:11:39.983Z,106.28
2022-12-23T20:14:07.856Z,112.13
2022-12-23T20:16:36.163Z,98.35
2022-12-23T20:19:04.131Z,103.78
2022-12-23T20:21:31.658Z,100.65
2022-12-23T20:24:01.191Z,107.15
2022-12-23T20:26:31.222Z,103.25
2022-12-23T20:31:46.385Z,96.57
2022-12-23T20:34:18.717Z,102.07
2022-12-23T20:36:47.263Z,99.63
2022-12-23T20:39:16.819Z,102.90
2022-12-23T20:41:45.853Z,101.90
2022-12-23T20:47:08.256Z,103.93
2022-12-23T20:49:40.509Z,108.53
2022-12-23T20:52:11.918Z,96.38
2022-12-23T20:54:42.457Z,93.60
2022-12-23T20:57:11.300Z,104.38
2022-12-23T20:59:38.867Z,98.60
2022-12-23T21:02:07.353Z,102.65
2022-12-23T21:04:38.251Z,110.25
2022-12-23T21:07:05.762Z,95.75
2022-12-23T21:09:36.564Z,95.47
2022-12-23T21:12:04.517Z,105.95
2022-12-23T21:14:35.926Z,95.50
2022-12-23T21:17:03.649Z,104.93
2022-12-23T21:19:36.338Z,103.93
2022-12-23T21:22:04.309Z,102.57
2022-12-23T21:24:31.801Z,113.00
2022-12-23T21:26:59.359Z,107.70
2022-12-23T21:29:27.293Z,108.15
2022-12-23T21:31:56.420Z,108.13
2022-12-23T21:34:24.224Z,102.97
2022-12-23T21:36:51.881Z,111.75
2022-12-23T21:39:19.876Z,101.95
2022-12-23T21:41:51.530Z,96.35
2022-12-23T21:44:19.719Z,102.10
2022-12-23T21:46:47.344Z,106.57
2022-12-23T21:49:16.785Z,112.22
2022-12-23T21:51:44.405Z,112.90
2022-12-23T21:57:01.677Z,113.60
2022-12-23T21:59:34.750Z,104.15
2022-12-23T22:02:09.693Z,105.88
2022-12-23T22:04:42.221Z,103.05
2022-12-23T22:07:09.736Z,113.43
2022-12-23T22:09:39.223Z,105.57
2022-12-23T22:12:06.835Z,98.20
2022-12-23T22:14:50.361Z,109.60
2022-12-23T22:17:21.055Z,97.73
2022-12-23T22:19:57.423Z,105.82
2022-12-23T22:22:31.649Z,85.50
2022-12-23T22:27:30.704Z,93.50
2022-12-23T22:30:00.726Z,104.22
2022-12-23T22:32:29.388Z,105.60
2022-12-23T22:34:58.628Z,110.38
2022-12-23T22:37:27.931Z,104.45
2022-12-23T22:39:55.736Z,98.35
2022-12-23T22:42:23.357Z,103.20
2022-12-23T22:44:51.100Z,110.10
2022-12-23T22:47:19.942Z,111.30
2022-12-23T22:49:47.622Z,94.43
2022-12-23T22:52:17.641Z,122.55
2022-12-23T22:54:45.492Z,101.05
2022-12-23T22:57:13.041Z,105.82
2022-12-23T22:59:40.751Z,102.82
2022-12-23T23:02:11.546Z,107.43
2022-12-23T23:04:39.339Z,94.88
2022-12-23T23:07:08.273Z,105.38
2022-12-23T23:09:39.019Z,111.80
2022-12-23T23:12:08.217Z,109.68
2022-12-23T23:14:52.081Z,105.00
2022-12-23T23:17:20.063Z,103.07
2022-12-23T23:19:47.672Z,103.00
2022-12-23T23:22:15.762Z,106.50
2022-12-23T23:24:51.850Z,94.78
2022-12-23T23:27:22.057Z,111.55
2022-12-23T23:29:49.714Z,106.65
2022-12-23T23:32:22.098Z,96.32
2022-12-23T23:34:52.332Z,98.00
2022-12-23T23:37:25.159Z,101.03
2022-12-23T23:39:54.235Z,107.68
2022-12-23T23:42:23.873Z,104.95
2022-12-23T23:44:55.287Z,85.00
2022-12-23T23:47:22.990Z,89.45
2022-12-23T23:49:50.808Z,100.88
2022-12-23T23:52:18.312Z,101.05
2022-12-23T23:54:45.890Z,102.93
2022-12-23T23:57:16.527Z,93.18
2022-12-23T23:59:44.144Z,98.90
